KPIB/PIB METAR and TAF weather

Enter ICAO airport designator
Station Type Date Time Source
KPIB METAR 2021/09/24 04:56 UTC NOAA

KPIB 240456Z AUTO 00000KT 10SM CLR 13/13 A3009 RMK AO2 SLP188 T01280128


Station Type Date Time Source
KPIB Decoded METAR 2021/09/24 04:56 UTC NOAA

Hattiesburg/Laurel, Hattiesburg-Laurel Regional Airport, MS, United States (KPIB) 31-28N 089-20W
Sep 24, 2021 - 12:56 AM EDT / 2021.09.24 0456 UTC
Wind: Calm:0
Visibility: 10 mile(s):0
Sky conditions: clear
Temperature: 55.0 F (12.8 C)
Dew Point: 55.0 F (12.8 C)
Relative Humidity: 100%
Pressure (altimeter): 30.09 in. Hg (1018 hPa)
ob: KPIB 240456Z AUTO 00000KT 10SM CLR 13/13 A3009 RMK AO2 SLP188 T01280128
cycle: 5

Station Type Date Time Source
KPIB TAF 2021/09/23 18:21 UTC NOAA

TAF KPIB 231720Z 2318/2418 36008KT P6SM SKC

Example: see airport list